createdAt,value
2023-02-12T00:00:19.502Z,21
2023-02-12T00:01:27.388Z,22
2023-02-12T00:02:37.733Z,21
2023-02-12T00:03:44.704Z,21
2023-02-12T00:04:51.574Z,20
2023-02-12T00:05:58.635Z,21
2023-02-12T00:07:08.081Z,21
2023-02-12T00:08:16.412Z,25
2023-02-12T00:09:23.204Z,25
2023-02-12T00:10:30.139Z,22
2023-02-12T00:11:38.142Z,23
2023-02-12T00:12:45.773Z,27
2023-02-12T00:13:52.637Z,28
2023-02-12T00:14:59.503Z,28
2023-02-12T00:16:07.247Z,27
2023-02-12T00:17:14.090Z,25
2023-02-12T00:18:21.070Z,25
2023-02-12T00:19:29.003Z,25
2023-02-12T00:20:35.864Z,23
2023-02-12T00:21:43.807Z,25
2023-02-12T00:22:50.702Z,26
2023-02-12T00:23:57.542Z,26
2023-02-12T00:25:04.410Z,26
2023-02-12T00:26:11.490Z,26
2023-02-12T00:27:19.174Z,26
2023-02-12T00:28:27.039Z,25
2023-02-12T00:29:34.855Z,25
2023-02-12T00:30:41.698Z,25
2023-02-12T00:31:48.659Z,24
2023-02-12T00:32:55.469Z,24
2023-02-12T00:34:05.269Z,24
2023-02-12T00:35:13.521Z,24
2023-02-12T00:36:20.578Z,24
2023-02-12T00:37:27.514Z,21
2023-02-12T00:38:35.417Z,20
2023-02-12T00:39:42.294Z,21
2023-02-12T00:40:51.837Z,21
2023-02-12T00:41:58.749Z,18
2023-02-12T00:43:05.581Z,19
2023-02-12T00:44:14.281Z,19
2023-02-12T00:45:22.116Z,19
2023-02-12T00:46:31.193Z,18
2023-02-12T00:47:39.023Z,19
2023-02-12T00:48:46.959Z,21
2023-02-12T00:49:54.636Z,19
2023-02-12T00:51:02.378Z,19
2023-02-12T00:52:10.383Z,21
2023-02-12T00:53:17.170Z,19
2023-02-12T00:54:25.885Z,21
2023-02-12T00:55:32.809Z,20
2023-02-12T00:56:41.560Z,22
2023-02-12T00:57:48.606Z,23
2023-02-12T00:58:55.546Z,21
2023-02-12T01:00:02.396Z,21
2023-02-12T01:01:09.647Z,23
2023-02-12T01:02:17.338Z,21
2023-02-12T01:03:25.295Z,22
2023-02-12T01:04:33.180Z,24
2023-02-12T01:05:40.099Z,24
2023-02-12T01:06:47.719Z,24
2023-02-12T01:07:55.621Z,23
2023-02-12T01:09:04.331Z,24
2023-02-12T01:10:12.155Z,25
2023-02-12T01:11:19.124Z,23
2023-02-12T01:12:26.101Z,24
2023-02-12T01:13:32.901Z,21
2023-02-12T01:14:40.629Z,21
2023-02-12T01:15:47.643Z,20
2023-02-12T01:16:54.357Z,19
2023-02-12T01:18:02.097Z,20
2023-02-12T01:19:10.047Z,19
2023-02-12T01:20:17.259Z,19
2023-02-12T01:21:25.657Z,19
2023-02-12T01:22:32.538Z,18
2023-02-12T01:23:39.750Z,20
2023-02-12T01:24:47.601Z,18
2023-02-12T01:25:54.972Z,18
2023-02-12T01:27:02.665Z,19
2023-02-12T01:28:10.791Z,19
2023-02-12T01:29:17.681Z,18
2023-02-12T01:30:25.467Z,18
2023-02-12T01:31:32.651Z,18
2023-02-12T01:32:39.343Z,18
2023-02-12T01:33:46.205Z,20
2023-02-12T01:34:55.313Z,16
2023-02-12T01:36:03.397Z,18
2023-02-12T01:37:10.562Z,18
2023-02-12T01:38:19.158Z,17
2023-02-12T01:39:27.100Z,17
2023-02-12T01:40:37.752Z,19
2023-02-12T01:41:44.645Z,16
2023-02-12T01:42:51.490Z,18
2023-02-12T01:44:00.047Z,16
2023-02-12T01:45:17.214Z,16
2023-02-12T01:46:32.190Z,16
2023-02-12T01:47:39.556Z,16
2023-02-12T01:48:47.432Z,16
2023-02-12T01:49:54.684Z,16
2023-02-12T01:51:04.914Z,15
2023-02-12T01:52:11.795Z,18
2023-02-12T01:53:23.886Z,16
2023-02-12T01:54:31.862Z,17
2023-02-12T01:55:39.635Z,18
2023-02-12T01:56:46.514Z,17
2023-02-12T01:57:54.179Z,18
2023-02-12T01:59:01.972Z,21
2023-02-12T02:00:10.884Z,20
2023-02-12T02:01:21.449Z,20
2023-02-12T02:02:28.299Z,20
2023-02-12T02:03:35.307Z,21
2023-02-12T02:04:42.831Z,21
2023-02-12T02:05:51.443Z,20
2023-02-12T02:07:01.292Z,20
2023-02-12T02:08:08.259Z,22
2023-02-12T02:09:16.482Z,19
2023-02-12T02:10:23.356Z,21
2023-02-12T02:11:30.241Z,20
2023-02-12T02:12:42.235Z,20
2023-02-12T02:13:54.232Z,22
2023-02-12T02:15:07.170Z,21
2023-02-12T02:16:16.269Z,21
2023-02-12T02:17:23.058Z,23
2023-02-12T02:18:41.125Z,23
2023-02-12T02:20:00.285Z,23
2023-02-12T02:21:17.536Z,23
2023-02-12T02:22:33.331Z,22
2023-02-12T02:23:40.215Z,24
2023-02-12T02:24:53.332Z,25
2023-02-12T02:26:10.465Z,24
2023-02-12T02:27:17.417Z,25
2023-02-12T02:28:28.179Z,26
2023-02-12T02:29:45.348Z,23
2023-02-12T02:30:57.562Z,27
2023-02-12T02:32:10.663Z,21
2023-02-12T02:33:25.223Z,23
2023-02-12T02:34:40.277Z,22
2023-02-12T02:35:56.456Z,22
2023-02-12T02:37:15.033Z,22
2023-02-12T02:38:23.857Z,21
2023-02-12T02:39:33.513Z,24
2023-02-12T02:40:41.471Z,23
2023-02-12T02:41:56.356Z,23
2023-02-12T02:43:03.178Z,22
2023-02-12T02:44:15.157Z,24
2023-02-12T02:45:25.001Z,23
2023-02-12T02:46:34.931Z,24
2023-02-12T02:47:47.712Z,24
2023-02-12T02:48:58.966Z,26
2023-02-12T02:50:08.820Z,27
2023-02-12T02:51:15.721Z,26
2023-02-12T02:52:25.465Z,30
2023-02-12T02:53:35.072Z,26
2023-02-12T02:54:53.219Z,29
2023-02-12T02:56:00.110Z,28
2023-02-12T02:57:07.109Z,28
2023-02-12T02:58:19.112Z,29
2023-02-12T02:59:28.945Z,31
2023-02-12T03:00:36.009Z,32
2023-02-12T03:01:44.924Z,30
2023-02-12T03:02:57.151Z,31
2023-02-12T03:04:06.788Z,31
2023-02-12T03:05:18.749Z,33
2023-02-12T03:06:27.228Z,35
2023-02-12T03:07:44.012Z,33
2023-02-12T03:08:52.931Z,35
2023-02-12T03:09:59.891Z,35
2023-02-12T03:11:10.764Z,38
2023-02-12T03:12:17.639Z,40
2023-02-12T03:13:24.445Z,38
2023-02-12T03:14:31.388Z,45
2023-02-12T03:15:39.096Z,48
2023-02-12T03:16:51.288Z,48
2023-02-12T03:18:04.764Z,60
2023-02-12T03:19:11.617Z,64
2023-02-12T03:20:19.926Z,67
2023-02-12T03:21:29.539Z,65
2023-02-12T03:22:46.578Z,68
2023-02-12T03:23:57.103Z,65
2023-02-12T03:25:03.945Z,63
2023-02-12T03:26:15.907Z,64
2023-02-12T03:27:24.683Z,59
2023-02-12T03:28:36.734Z,47
2023-02-12T03:29:43.488Z,48
2023-02-12T03:30:51.243Z,41
2023-02-12T03:32:05.889Z,42
2023-02-12T03:33:18.074Z,43
2023-02-12T03:34:25.960Z,42
2023-02-12T03:35:38.841Z,40
2023-02-12T03:36:47.654Z,38
2023-02-12T03:37:57.627Z,37
2023-02-12T03:39:06.306Z,33
2023-02-12T03:40:16.571Z,32
2023-02-12T03:41:23.616Z,31
2023-02-12T03:42:31.378Z,33
2023-02-12T03:43:48.504Z,32
2023-02-12T03:44:57.010Z,30
2023-02-12T03:46:15.126Z,32
2023-02-12T03:47:32.302Z,34
2023-02-12T03:48:48.267Z,32
2023-02-12T03:50:03.445Z,29
2023-02-12T03:51:18.176Z,28
2023-02-12T03:52:32.917Z,30
2023-02-12T03:53:39.770Z,28
2023-02-12T03:54:47.608Z,28
2023-02-12T03:55:54.763Z,31
2023-02-12T03:57:09.316Z,31
2023-02-12T03:58:21.514Z,28
2023-02-12T03:59:28.490Z,28
2023-02-12T04:00:35.308Z,27
2023-02-12T04:01:43.034Z,28
2023-02-12T04:02:49.708Z,25
2023-02-12T04:03:57.757Z,27
2023-02-12T04:05:07.472Z,26
2023-02-12T04:06:19.430Z,28
2023-02-12T04:07:26.331Z,26
2023-02-12T04:08:34.207Z,22
2023-02-12T04:09:41.118Z,25
2023-02-12T04:10:48.961Z,26
2023-02-12T04:11:56.734Z,24
2023-02-12T04:13:08.726Z,25
2023-02-12T04:14:23.686Z,25
2023-02-12T04:15:36.793Z,25
2023-02-12T04:16:47.602Z,23
2023-02-12T04:17:58.072Z,26
2023-02-12T04:19:09.130Z,23
2023-02-12T04:20:16.003Z,24
2023-02-12T04:21:31.864Z,24
2023-02-12T04:22:46.525Z,24
2023-02-12T04:24:03.689Z,22
2023-02-12T04:25:21.092Z,22
2023-02-12T04:26:33.205Z,22
2023-02-12T04:27:40.386Z,25
2023-02-12T04:28:55.478Z,24
2023-02-12T04:30:12.655Z,21
2023-02-12T04:31:25.827Z,22
2023-02-12T04:32:36.304Z,21
2023-02-12T04:33:50.970Z,22
2023-02-12T04:35:03.859Z,20
2023-02-12T04:36:16.957Z,19
2023-02-12T04:37:23.905Z,17
2023-02-12T04:38:39.216Z,18
2023-02-12T04:39:47.199Z,19
2023-02-12T04:40:55.051Z,19
2023-02-12T04:42:02.053Z,19
2023-02-12T04:43:08.921Z,19
2023-02-12T04:44:16.541Z,17
2023-02-12T04:45:26.518Z,19
2023-02-12T04:46:33.403Z,19
2023-02-12T04:47:40.204Z,17
2023-02-12T04:48:49.095Z,18
2023-02-12T04:49:59.382Z,19
2023-02-12T04:51:06.203Z,20
2023-02-12T04:52:13.086Z,19
2023-02-12T04:53:21.388Z,19
2023-02-12T04:54:31.592Z,19
2023-02-12T04:55:38.527Z,18
2023-02-12T04:56:46.322Z,17
2023-02-12T04:57:53.304Z,20
2023-02-12T04:59:04.035Z,17
2023-02-12T05:00:11.034Z,19
2023-02-12T05:01:18.147Z,19
2023-02-12T05:02:26.825Z,21
2023-02-12T05:03:33.719Z,20
2023-02-12T05:04:40.510Z,19
2023-02-12T05:05:49.659Z,19
2023-02-12T05:06:56.732Z,21
2023-02-12T05:08:05.505Z,21
2023-02-12T05:09:13.516Z,21
2023-02-12T05:10:20.371Z,20
2023-02-12T05:11:27.164Z,21
2023-02-12T05:12:34.025Z,21
2023-02-12T05:13:40.904Z,20
2023-02-12T05:14:48.736Z,18
2023-02-12T05:15:55.925Z,19
2023-02-12T05:17:03.246Z,21
2023-02-12T05:18:10.020Z,21
2023-02-12T05:19:16.869Z,18
2023-02-12T05:20:25.463Z,21
2023-02-12T05:21:33.399Z,19
2023-02-12T05:22:41.788Z,19
2023-02-12T05:23:49.777Z,18
2023-02-12T05:24:57.530Z,20
2023-02-12T05:26:04.361Z,20
2023-02-12T05:27:11.388Z,18
2023-02-12T05:28:19.297Z,19
2023-02-12T05:29:26.231Z,22
2023-02-12T05:30:34.495Z,20
2023-02-12T05:31:41.545Z,20
2023-02-12T05:32:48.377Z,21
2023-02-12T05:33:56.639Z,20
2023-02-12T05:35:03.611Z,21
2023-02-12T05:36:13.765Z,22
2023-02-12T05:37:23.777Z,21
2023-02-12T05:38:31.668Z,22
2023-02-12T05:39:38.712Z,21
2023-02-12T05:40:45.559Z,21
2023-02-12T05:41:52.731Z,22
2023-02-12T05:42:59.809Z,21
2023-02-12T05:44:09.709Z,23
2023-02-12T05:45:16.579Z,22
2023-02-12T05:46:23.502Z,23
2023-02-12T05:47:33.246Z,23
2023-02-12T05:48:40.127Z,23
2023-02-12T05:49:48.569Z,23
2023-02-12T05:50:56.473Z,24
2023-02-12T05:52:09.353Z,24
2023-02-12T05:53:17.863Z,25
2023-02-12T05:54:24.422Z,25
2023-02-12T05:55:31.296Z,26
2023-02-12T05:56:38.249Z,24
2023-02-12T05:57:48.390Z,26
2023-02-12T05:58:56.995Z,27
2023-02-12T06:00:06.675Z,29
2023-02-12T06:01:13.800Z,29
2023-02-12T06:02:23.694Z,32
2023-02-12T06:03:32.543Z,33
2023-02-12T06:04:40.366Z,32
2023-02-12T06:05:47.192Z,34
2023-02-12T06:06:54.061Z,32
2023-02-12T06:08:00.999Z,35
2023-02-12T06:09:07.911Z,35
2023-02-12T06:10:15.671Z,35
2023-02-12T06:11:22.721Z,37
2023-02-12T06:12:30.567Z,34
2023-02-12T06:13:40.605Z,34
2023-02-12T06:14:47.598Z,29
2023-02-12T06:15:55.096Z,27
2023-02-12T06:17:01.583Z,25
2023-02-12T06:18:09.739Z,29
2023-02-12T06:19:17.509Z,30
2023-02-12T06:20:24.756Z,30
2023-02-12T06:21:31.674Z,29
2023-02-12T06:22:38.498Z,33
2023-02-12T06:23:45.789Z,43
2023-02-12T06:24:56.811Z,46
2023-02-12T06:26:03.710Z,40
2023-02-12T06:27:10.607Z,43
2023-02-12T06:28:17.575Z,38
2023-02-12T06:29:24.544Z,37
2023-02-12T06:30:31.472Z,32
2023-02-12T06:31:39.261Z,35
2023-02-12T06:32:45.942Z,30
2023-02-12T06:33:53.742Z,28
2023-02-12T06:35:02.212Z,29
2023-02-12T06:36:12.794Z,28
2023-02-12T06:37:19.686Z,27
2023-02-12T06:38:27.531Z,31
2023-02-12T06:39:34.552Z,32
2023-02-12T06:40:41.485Z,40
2023-02-12T06:41:53.660Z,43
2023-02-12T06:43:00.771Z,40
2023-02-12T06:44:08.609Z,39
2023-02-12T06:45:16.412Z,45
2023-02-12T06:46:23.374Z,50
2023-02-12T06:47:30.180Z,46
2023-02-12T06:48:37.153Z,57
2023-02-12T06:49:45.468Z,62
2023-02-12T06:50:52.366Z,62
2023-02-12T06:52:02.265Z,48
2023-02-12T06:53:06.929Z,46
2023-02-12T06:54:13.716Z,50
2023-02-12T06:55:21.562Z,44
2023-02-12T06:56:31.824Z,49
2023-02-12T06:57:40.204Z,44
2023-02-12T06:58:48.126Z,42
2023-02-12T06:59:58.713Z,38
2023-02-12T07:01:06.691Z,36
2023-02-12T07:02:18.588Z,29
2023-02-12T07:03:26.408Z,27
2023-02-12T07:04:35.113Z,24
2023-02-12T07:05:43.941Z,25
2023-02-12T07:06:50.818Z,25
2023-02-12T07:07:57.601Z,23
2023-02-12T07:09:07.122Z,25
2023-02-12T07:10:14.032Z,26
2023-02-12T07:11:22.932Z,27
2023-02-12T07:12:30.019Z,29
2023-02-12T07:13:36.867Z,30
2023-02-12T07:14:44.697Z,29
2023-02-12T07:15:51.691Z,28
2023-02-12T07:16:58.538Z,25
2023-02-12T07:18:05.305Z,28
2023-02-12T07:19:12.187Z,26
2023-02-12T07:20:18.953Z,27
2023-02-12T07:21:26.813Z,28
2023-02-12T07:22:37.124Z,28
2023-02-12T07:23:45.698Z,28
2023-02-12T07:24:52.719Z,25
2023-02-12T07:26:00.671Z,25
2023-02-12T07:27:07.862Z,24
2023-02-12T07:28:16.877Z,22
2023-02-12T07:29:23.920Z,22
2023-02-12T07:30:32.381Z,23
2023-02-12T07:31:40.713Z,26
2023-02-12T07:32:48.794Z,26
2023-02-12T07:33:58.664Z,27
2023-02-12T07:35:05.685Z,27
2023-02-12T07:36:12.881Z,25
2023-02-12T07:37:20.946Z,25
2023-02-12T07:38:28.855Z,24
2023-02-12T07:39:36.716Z,25
2023-02-12T07:40:49.227Z,26
2023-02-12T07:41:58.156Z,29
2023-02-12T07:43:06.868Z,29
2023-02-12T07:44:13.818Z,29
2023-02-12T07:45:20.616Z,28
2023-02-12T07:46:28.321Z,32
2023-02-12T07:47:35.210Z,32
2023-02-12T07:48:46.177Z,33
2023-02-12T07:49:53.660Z,30
2023-02-12T07:51:02.140Z,30
2023-02-12T07:52:10.967Z,31
2023-02-12T07:53:17.441Z,30
2023-02-12T07:54:24.258Z,31
2023-02-12T07:55:31.116Z,30
2023-02-12T07:56:39.713Z,30
2023-02-12T07:57:46.531Z,30
2023-02-12T07:58:53.394Z,29
2023-02-12T08:00:01.110Z,27
2023-02-12T08:01:08.302Z,24
2023-02-12T08:02:17.300Z,23
2023-02-12T08:03:24.005Z,25
2023-02-12T08:04:30.934Z,23
2023-02-12T08:05:37.836Z,22
2023-02-12T08:06:44.788Z,22
2023-02-12T08:07:51.663Z,21
2023-02-12T08:08:58.669Z,20
2023-02-12T08:10:05.521Z,21
2023-02-12T08:11:14.533Z,23
2023-02-12T08:12:21.436Z,24
2023-02-12T08:13:29.997Z,29
2023-02-12T08:14:36.943Z,30
2023-02-12T08:15:44.881Z,25
2023-02-12T08:16:51.864Z,28
2023-02-12T08:17:59.552Z,25
2023-02-12T08:19:16.830Z,27
2023-02-12T08:20:14.434Z,31
2023-02-12T08:21:21.457Z,28
2023-02-12T08:22:28.368Z,28
2023-02-12T08:23:35.384Z,30
2023-02-12T08:24:44.926Z,30
2023-02-12T08:25:51.792Z,29
2023-02-12T08:26:59.841Z,29
2023-02-12T08:28:08.697Z,29
2023-02-12T08:29:15.493Z,29
2023-02-12T08:30:22.358Z,24
2023-02-12T08:31:29.247Z,22
2023-02-12T08:32:36.141Z,23
2023-02-12T08:33:43.029Z,21
2023-02-12T08:34:49.970Z,25
2023-02-12T08:35:59.399Z,27
2023-02-12T08:37:09.682Z,31
2023-02-12T08:38:17.989Z,28
2023-02-12T08:39:26.795Z,26
2023-02-12T08:40:33.870Z,25
2023-02-12T08:41:42.645Z,25
2023-02-12T08:42:49.665Z,23
2023-02-12T08:43:57.962Z,27
2023-02-12T08:45:07.664Z,23
2023-02-12T08:46:15.900Z,23
2023-02-12T08:47:22.759Z,24
2023-02-12T08:48:31.852Z,25
2023-02-12T08:49:39.428Z,25
2023-02-12T08:50:46.319Z,22
2023-02-12T08:51:53.206Z,20
2023-02-12T08:53:00.057Z,18
2023-02-12T08:54:07.062Z,16
2023-02-12T08:55:14.100Z,16
2023-02-12T08:56:21.029Z,16
2023-02-12T08:57:28.036Z,16
2023-02-12T08:58:34.857Z,15
2023-02-12T08:59:41.693Z,17
2023-02-12T09:00:48.544Z,18
2023-02-12T09:01:55.741Z,18
2023-02-12T09:03:02.696Z,18
2023-02-12T09:04:09.575Z,16
2023-02-12T09:05:16.534Z,16
2023-02-12T09:06:23.548Z,17
2023-02-12T09:07:30.438Z,15
2023-02-12T09:08:37.359Z,15
2023-02-12T09:09:44.170Z,17
2023-02-12T09:10:51.086Z,17
2023-02-12T09:11:57.914Z,15
2023-02-12T09:13:04.797Z,13
2023-02-12T09:14:11.672Z,16
2023-02-12T09:15:18.560Z,17
2023-02-12T09:16:25.424Z,15
2023-02-12T09:17:32.174Z,18
2023-02-12T09:18:39.058Z,15
2023-02-12T09:19:45.902Z,17
2023-02-12T09:20:52.770Z,20
2023-02-12T09:21:59.627Z,18
2023-02-12T09:23:06.524Z,17
2023-02-12T09:24:13.509Z,20
2023-02-12T09:25:20.396Z,18
2023-02-12T09:26:27.457Z,19
2023-02-12T09:27:34.447Z,20
2023-02-12T09:28:41.407Z,22
2023-02-12T09:29:48.351Z,21
2023-02-12T09:30:55.185Z,19
2023-02-12T09:32:02.160Z,21
2023-02-12T09:33:09.003Z,21
2023-02-12T09:34:16.062Z,21
2023-02-12T09:35:22.908Z,23
2023-02-12T09:36:29.818Z,25
2023-02-12T09:37:36.720Z,23
2023-02-12T09:38:43.595Z,21
2023-02-12T09:39:51.283Z,21
2023-02-12T09:40:57.360Z,20
2023-02-12T09:42:14.391Z,25
2023-02-12T09:43:24.140Z,27
2023-02-12T09:44:33.694Z,23
2023-02-12T09:45:45.601Z,22
2023-02-12T09:47:00.162Z,23
2023-02-12T09:48:17.044Z,23
2023-02-12T09:49:29.939Z,20
2023-02-12T09:50:46.871Z,22
2023-02-12T09:51:56.616Z,21
2023-02-12T09:53:03.617Z,26
2023-02-12T09:54:10.462Z,25
2023-02-12T09:55:17.346Z,22
2023-02-12T09:56:24.162Z,21
2023-02-12T09:57:31.060Z,21
2023-02-12T09:58:38.083Z,21
2023-02-12T09:59:50.057Z,23
2023-02-12T10:01:01.992Z,23
2023-02-12T10:02:16.680Z,23
2023-02-12T10:03:28.535Z,21
2023-02-12T10:04:35.397Z,19
2023-02-12T10:05:44.408Z,20
2023-02-12T10:06:54.173Z,20
2023-02-12T10:08:01.268Z,17
2023-02-12T10:09:18.297Z,20
2023-02-12T10:10:32.755Z,21
2023-02-12T10:11:49.742Z,20
2023-02-12T10:12:56.684Z,19
2023-02-12T10:14:11.535Z,20
2023-02-12T10:15:23.423Z,21
2023-02-12T10:16:32.982Z,19
2023-02-12T10:17:44.155Z,20
2023-02-12T10:18:53.286Z,20
2023-02-12T10:20:06.073Z,18
2023-02-12T10:21:18.087Z,22
2023-02-12T10:22:30.774Z,20
2023-02-12T10:23:45.447Z,21
2023-02-12T10:24:57.394Z,21
2023-02-12T10:26:12.024Z,23
2023-02-12T10:27:24.030Z,20
2023-02-12T10:28:41.183Z,20
2023-02-12T10:29:52.212Z,21
2023-02-12T10:30:59.248Z,19
2023-02-12T10:32:06.129Z,18
2023-02-12T10:33:21.136Z,18
2023-02-12T10:34:34.063Z,18
2023-02-12T10:35:41.116Z,22
2023-02-12T10:36:55.537Z,23
2023-02-12T10:38:12.997Z,19
2023-02-12T10:39:23.066Z,20
2023-02-12T10:40:32.896Z,26
2023-02-12T10:41:43.197Z,24
2023-02-12T10:42:55.223Z,26
2023-02-12T10:44:08.535Z,25
2023-02-12T10:45:19.444Z,17
2023-02-12T10:46:31.876Z,16
2023-02-12T10:47:38.677Z,17
2023-02-12T10:48:45.539Z,16
2023-02-12T10:49:52.475Z,16
2023-02-12T10:51:04.403Z,18
2023-02-12T10:52:11.210Z,20
2023-02-12T10:53:28.177Z,21
2023-02-12T10:54:37.675Z,18
2023-02-12T10:55:47.624Z,18
2023-02-12T10:56:57.283Z,19
2023-02-12T10:58:09.451Z,19
2023-02-12T10:59:16.335Z,20
2023-02-12T11:00:25.883Z,20
2023-02-12T11:01:37.435Z,23
2023-02-12T11:02:44.416Z,21
2023-02-12T11:04:01.543Z,20
2023-02-12T11:05:18.655Z,18
2023-02-12T11:06:26.482Z,19
2023-02-12T11:07:33.319Z,22
2023-02-12T11:08:40.238Z,22
2023-02-12T11:09:47.054Z,23
2023-02-12T11:10:54.007Z,21
2023-02-12T11:12:10.772Z,20
2023-02-12T11:13:20.470Z,20
2023-02-12T11:14:30.271Z,20
2023-02-12T11:15:37.427Z,18
2023-02-12T11:16:49.385Z,19
2023-02-12T11:17:56.267Z,23
2023-02-12T11:19:06.013Z,22
2023-02-12T11:20:20.715Z,21
2023-02-12T11:21:28.691Z,20
2023-02-12T11:22:35.698Z,22
2023-02-12T11:23:42.644Z,23
2023-02-12T11:24:49.572Z,19
2023-02-12T11:25:56.837Z,20
2023-02-12T11:27:08.604Z,21
2023-02-12T11:28:16.297Z,22
2023-02-12T11:29:24.126Z,22
2023-02-12T11:30:30.991Z,21
2023-02-12T11:31:41.959Z,20
2023-02-12T11:32:48.730Z,22
2023-02-12T11:33:55.687Z,21
2023-02-12T11:35:15.406Z,24
2023-02-12T11:36:25.255Z,28
2023-02-12T11:37:32.498Z,26
2023-02-12T11:38:39.997Z,22
2023-02-12T11:39:54.549Z,33
2023-02-12T11:41:02.272Z,32
2023-02-12T11:42:14.204Z,33
2023-02-12T11:43:23.739Z,34
2023-02-12T11:44:30.808Z,29
2023-02-12T11:45:40.402Z,30
2023-02-12T11:46:53.513Z,28
2023-02-12T11:48:03.756Z,25
2023-02-12T11:49:25.483Z,25
2023-02-12T11:50:34.094Z,23
2023-02-12T11:51:41.083Z,22
2023-02-12T11:52:51.111Z,21
2023-02-12T11:54:01.143Z,21
2023-02-12T11:55:08.283Z,21
2023-02-12T11:56:25.390Z,21
2023-02-12T11:57:43.249Z,22
2023-02-12T11:58:50.208Z,21
2023-02-12T11:59:57.203Z,21
2023-02-12T12:01:04.140Z,21
2023-02-12T12:02:15.697Z,23
2023-02-12T12:03:27.156Z,22
2023-02-12T12:04:41.378Z,19
2023-02-12T12:05:48.332Z,21
2023-02-12T12:06:55.408Z,22
2023-02-12T12:08:08.562Z,25
2023-02-12T12:09:15.500Z,24
2023-02-12T12:10:27.579Z,26
2023-02-12T12:11:42.745Z,23
2023-02-12T12:12:54.855Z,20
2023-02-12T12:14:01.779Z,14
2023-02-12T12:15:13.863Z,15
2023-02-12T12:16:29.478Z,19
2023-02-12T12:17:41.455Z,20
2023-02-12T12:18:56.198Z,17
2023-02-12T12:20:13.313Z,18
2023-02-12T12:21:20.460Z,19
2023-02-12T12:22:38.476Z,15
2023-02-12T12:23:53.472Z,14
2023-02-12T12:25:06.429Z,43
2023-02-12T12:26:25.708Z,92
2023-02-12T12:27:32.724Z,229
2023-02-12T12:28:47.796Z,77
2023-02-12T12:29:59.732Z,39
2023-02-12T12:31:06.989Z,65
2023-02-12T12:32:16.496Z,107
2023-02-12T12:33:24.001Z,43
2023-02-12T12:34:38.942Z,33
2023-02-12T12:35:46.174Z,61
2023-02-12T12:37:00.753Z,41
2023-02-12T12:38:12.797Z,25
2023-02-12T12:39:22.776Z,90
2023-02-12T12:40:29.867Z,83
2023-02-12T12:41:42.390Z,35
2023-02-12T12:42:59.516Z,17
2023-02-12T12:44:06.469Z,17
2023-02-12T12:45:18.546Z,17
2023-02-12T12:46:34.197Z,18
2023-02-12T12:47:51.322Z,47
2023-02-12T12:49:06.044Z,34
2023-02-12T12:50:12.982Z,21
2023-02-12T12:51:27.657Z,34
2023-02-12T12:52:43.424Z,21
2023-02-12T12:53:58.361Z,18
2023-02-12T12:55:12.711Z,20
2023-02-12T12:56:25.512Z,17
2023-02-12T12:57:37.524Z,16
2023-02-12T12:58:49.561Z,20
2023-02-12T13:00:07.933Z,20
2023-02-12T13:01:20.677Z,17
2023-02-12T13:02:35.668Z,18
2023-02-12T13:03:55.713Z,12
2023-02-12T13:05:10.680Z,12
2023-02-12T13:06:27.762Z,16
2023-02-12T13:07:45.615Z,15
2023-02-12T13:08:57.593Z,14
2023-02-12T13:10:09.636Z,15
2023-02-12T13:11:28.166Z,16
2023-02-12T13:12:38.774Z,16
2023-02-12T13:13:45.804Z,22
2023-02-12T13:14:52.905Z,14
2023-02-12T13:16:04.843Z,20
2023-02-12T13:17:22.128Z,20
2023-02-12T13:18:30.039Z,16
2023-02-12T13:19:47.903Z,15
2023-02-12T13:21:03.121Z,16
2023-02-12T13:22:17.936Z,16
2023-02-12T13:23:24.958Z,15
2023-02-12T13:24:39.856Z,16
2023-02-12T13:25:47.667Z,15
2023-02-12T13:27:04.744Z,16
2023-02-12T13:28:17.815Z,16
2023-02-12T13:29:27.716Z,12
2023-02-12T13:30:39.734Z,18
2023-02-12T13:31:49.884Z,16
2023-02-12T13:32:59.357Z,14
2023-02-12T13:34:09.341Z,15
2023-02-12T13:35:16.290Z,16
2023-02-12T13:36:23.201Z,14
2023-02-12T13:37:30.523Z,14
2023-02-12T13:38:45.131Z,12
2023-02-12T13:39:59.731Z,14
2023-02-12T13:41:06.679Z,17
2023-02-12T13:42:13.774Z,14
2023-02-12T13:43:31.767Z,12
2023-02-12T13:44:48.934Z,19
2023-02-12T13:46:01.718Z,15
2023-02-12T13:47:11.455Z,16
2023-02-12T13:48:21.286Z,17
2023-02-12T13:49:33.284Z,18
2023-02-12T13:50:46.121Z,15
2023-02-12T13:52:00.860Z,17
2023-02-12T13:53:13.406Z,17
2023-02-12T13:54:25.896Z,16
2023-02-12T13:55:32.753Z,18
2023-02-12T13:56:42.775Z,16
2023-02-12T13:57:52.760Z,15
2023-02-12T13:59:09.798Z,15
2023-02-12T14:00:26.827Z,17
2023-02-12T14:01:46.848Z,17
2023-02-12T14:02:51.264Z,16
2023-02-12T14:03:58.703Z,15
2023-02-12T14:05:15.703Z,14
2023-02-12T14:06:27.738Z,17
2023-02-12T14:07:35.092Z,19
2023-02-12T14:08:44.877Z,21
2023-02-12T14:09:57.811Z,20
2023-02-12T14:11:04.855Z,22
2023-02-12T14:12:15.935Z,21
2023-02-12T14:13:28.272Z,20
2023-02-12T14:14:35.185Z,18
2023-02-12T14:15:42.153Z,19
2023-02-12T14:16:54.247Z,64
2023-02-12T14:18:03.807Z,61
2023-02-12T14:19:10.797Z,65
2023-02-12T14:20:28.979Z,86
2023-02-12T14:21:39.220Z,163
2023-02-12T14:22:46.196Z,175
2023-02-12T14:23:53.998Z,27
2023-02-12T14:25:03.781Z,21
2023-02-12T14:26:20.846Z,18
2023-02-12T14:27:27.744Z,18
2023-02-12T14:28:39.778Z,22
2023-02-12T14:29:54.794Z,28
2023-02-12T14:31:10.059Z,24
2023-02-12T14:32:21.996Z,33
2023-02-12T14:33:39.327Z,181
2023-02-12T14:34:46.635Z,129
2023-02-12T14:35:54.316Z,129
2023-02-12T14:37:05.954Z,129
2023-02-12T14:38:18.562Z,129
2023-02-12T14:39:31.422Z,142
2023-02-12T14:40:38.556Z,142
2023-02-12T14:41:48.233Z,142
2023-02-12T14:42:55.252Z,142
2023-02-12T14:44:02.363Z,25
2023-02-12T14:45:19.630Z,25
2023-02-12T14:46:31.640Z,25
2023-02-12T14:47:38.594Z,25
2023-02-12T14:48:48.054Z,25
2023-02-12T14:49:54.957Z,25
2023-02-12T14:51:07.709Z,25
2023-02-12T14:52:17.236Z,41
2023-02-12T14:53:34.264Z,41
2023-02-12T14:54:41.133Z,41
2023-02-12T14:55:56.590Z,25
2023-02-12T14:57:03.193Z,25
2023-02-12T14:58:10.202Z,12
2023-02-12T14:59:17.206Z,13
2023-02-12T15:00:24.197Z,16
2023-02-12T15:01:38.895Z,16
2023-02-12T15:02:45.810Z,16
2023-02-12T15:04:01.429Z,18
2023-02-12T15:05:08.312Z,18
2023-02-12T15:06:20.452Z,18
2023-02-12T15:07:30.902Z,28
2023-02-12T15:08:43.735Z,21
2023-02-12T15:09:55.665Z,21
2023-02-12T15:11:07.733Z,21
2023-02-12T15:12:19.997Z,21
2023-02-12T15:13:34.820Z,21
2023-02-12T15:14:46.691Z,21
2023-02-12T15:15:55.623Z,21
2023-02-12T15:17:12.613Z,21
2023-02-12T15:18:24.157Z,17
2023-02-12T15:19:32.254Z,23
2023-02-12T15:20:52.136Z,23
2023-02-12T15:22:01.198Z,26
2023-02-12T15:23:18.745Z,28
2023-02-12T15:24:33.224Z,28
2023-02-12T15:25:40.092Z,36
2023-02-12T15:26:47.090Z,36
2023-02-12T15:27:54.067Z,36
2023-02-12T15:29:09.099Z,36
2023-02-12T15:30:26.183Z,22
2023-02-12T15:31:30.892Z,22
2023-02-12T15:32:37.779Z,22
2023-02-12T15:33:44.791Z,22
2023-02-12T15:34:51.727Z,22
2023-02-12T15:35:58.947Z,22
2023-02-12T15:37:05.477Z,22
2023-02-12T15:38:12.351Z,22
2023-02-12T15:39:24.244Z,22
2023-02-12T15:40:31.986Z,22
2023-02-12T15:41:38.908Z,22
2023-02-12T15:42:45.922Z,35
2023-02-12T15:43:58.026Z,35
2023-02-12T15:45:09.938Z,35
2023-02-12T15:46:17.678Z,35
2023-02-12T15:47:24.567Z,35
2023-02-12T15:48:32.278Z,35
2023-02-12T15:49:39.201Z,35
2023-02-12T15:50:46.298Z,35
2023-02-12T15:51:58.867Z,35
2023-02-12T15:53:05.771Z,35
2023-02-12T15:54:12.855Z,36
2023-02-12T15:55:22.299Z,35
2023-02-12T15:56:29.405Z,35
2023-02-12T15:57:39.144Z,35
2023-02-12T15:58:46.188Z,38
2023-02-12T15:59:58.662Z,38
2023-02-12T16:01:11.353Z,38
2023-02-12T16:02:19.723Z,36
2023-02-12T16:03:29.696Z,36
2023-02-12T16:04:36.568Z,36
2023-02-12T16:05:43.373Z,36
2023-02-12T16:06:50.237Z,36
2023-02-12T16:07:59.852Z,36
2023-02-12T16:09:06.793Z,36
2023-02-12T16:10:19.251Z,36
2023-02-12T16:11:26.062Z,36
2023-02-12T16:12:34.184Z,36
2023-02-12T16:13:43.896Z,36
2023-02-12T16:14:54.496Z,36
2023-02-12T16:16:02.645Z,36
2023-02-12T16:17:09.844Z,36
2023-02-12T16:18:21.976Z,33
2023-02-12T16:19:31.059Z,33
2023-02-12T16:20:38.097Z,33
2023-02-12T16:21:45.358Z,33
2023-02-12T16:23:00.177Z,30
2023-02-12T16:24:07.136Z,30
2023-02-12T16:25:22.982Z,31
2023-02-12T16:26:33.389Z,31
2023-02-12T16:27:40.824Z,48
2023-02-12T16:28:52.889Z,48
2023-02-12T16:29:59.860Z,48
2023-02-12T16:31:07.167Z,48